Time;durP1;ratioP1;P1;durP2;ratioP2;P2;SDS_P1;SDS_P2;PMS_P1;PMS_P2;Temp;Humidity;BMP_temperature;BMP_pressure;BME280_temperature;BME280_humidity;BME280_pressure;Samples;Min_cycle;Max_cycle;Signal;HPM_P1;HPM_P2
2023/03/22 00:00:54;;;;;;;27.03;11.23;;;9.50;99.90;;;;;;5112808;28;20438;-63
2023/03/22 00:03:20;;;;;;;20.83;10.60;;;9.90;99.90;;;;;;5112321;28;20039;-63
2023/03/22 00:05:46;;;;;;;21.33;10.05;;;9.80;99.90;;;;;;5111277;28;20077;-63
2023/03/22 00:08:12;;;;;;;20.90;9.15;;;9.70;99.90;;;;;;5111905;28;20046;-62
2023/03/22 00:10:38;;;;;;;24.10;9.18;;;9.70;99.90;;;;;;5112236;28;20051;-64
2023/03/22 00:13:06;;;;;;;23.00;8.35;;;9.50;99.90;;;;;;5094357;28;20065;-63
2023/03/22 00:15:31;;;;;;;24.80;7.97;;;9.70;99.90;;;;;;5112171;28;20054;-63
2023/03/22 00:17:57;;;;;;;22.85;8.15;;;9.80;99.90;;;;;;5112220;28;20056;-64
2023/03/22 00:20:24;;;;;;;20.20;7.35;;;9.60;99.90;;;;;;5111348;28;20055;-63
2023/03/22 00:22:50;;;;;;;24.88;8.65;;;9.70;99.90;;;;;;5111917;28;20071;-63
2023/03/22 00:25:17;;;;;;;21.15;8.38;;;9.70;99.90;;;;;;5112105;28;20097;-64
2023/03/22 00:27:43;;;;;;;21.50;7.53;;;9.60;99.90;;;;;;5111942;28;20054;-64
2023/03/22 00:30:10;;;;;;;23.27;7.72;;;9.60;99.90;;;;;;5112134;28;20142;-63
2023/03/22 00:32:38;;;;;;;22.80;8.00;;;9.70;99.90;;;;;;5111988;28;20391;-63
2023/03/22 00:35:05;;;;;;;17.58;7.20;;;9.80;99.90;;;;;;5112136;28;20101;-62
2023/03/22 00:37:33;;;;;;;23.35;7.90;;;9.50;99.90;;;;;;5110620;28;20383;-63
2023/03/22 00:40:00;;;;;;;16.92;6.97;;;9.50;99.90;;;;;;5110525;28;20047;-63
2023/03/22 00:42:25;;;;;;;20.50;7.95;;;9.60;99.90;;;;;;5111943;28;20082;-63
2023/03/22 00:44:51;;;;;;;23.17;6.30;;;9.70;99.90;;;;;;5112140;28;20075;-63
2023/03/22 00:47:17;;;;;;;17.38;6.35;;;9.70;99.90;;;;;;5111760;28;20047;-63
2023/03/22 00:49:43;;;;;;;17.67;6.53;;;9.70;99.90;;;;;;5111754;28;20099;-65
2023/03/22 00:52:08;;;;;;;20.15;6.60;;;9.40;99.90;;;;;;5111855;28;20082;-63
2023/03/22 00:54:34;;;;;;;16.95;6.70;;;9.40;99.90;;;;;;5111706;28;20047;-63
2023/03/22 00:57:00;;;;;;;15.82;5.40;;;9.70;99.90;;;;;;5112045;28;20106;-63
2023/03/22 00:59:27;;;;;;;18.25;5.95;;;9.60;99.90;;;;;;5111554;28;20140;-63
2023/03/22 01:01:54;;;;;;;14.80;4.68;;;9.30;99.90;;;;;;5111798;28;20055;-63
2023/03/22 01:04:24;;;;;;;12.77;4.60;;;9.20;99.90;;;;;;5111665;28;20043;-63
2023/03/22 01:06:58;;;;;;;16.48;4.97;;;9.40;99.90;;;;;;5111786;28;20055;-63
2023/03/22 01:09:27;;;;;;;16.77;4.50;;;9.40;99.90;;;;;;5111672;28;20047;-64
2023/03/22 01:11:55;;;;;;;18.55;4.45;;;9.50;99.90;;;;;;5111717;28;20106;-62
2023/03/22 01:14:21;;;;;;;15.40;4.10;;;9.40;99.90;;;;;;5112048;28;20126;-62
2023/03/22 01:16:47;;;;;;;15.85;4.03;;;9.50;99.90;;;;;;5111643;28;20134;-62
2023/03/22 01:19:13;;;;;;;14.82;4.03;;;9.40;99.90;;;;;;5111352;28;20606;-63
2023/03/22 01:21:39;;;;;;;15.32;3.67;;;9.40;99.90;;;;;;5111708;28;20517;-63
2023/03/22 01:24:05;;;;;;;12.80;3.53;;;9.50;99.90;;;;;;5111539;28;20085;-63
2023/03/22 01:26:31;;;;;;;9.60;2.90;;;9.10;99.90;;;;;;5112020;28;20089;-63
2023/03/22 01:28:57;;;;;;;13.95;4.00;;;9.30;99.90;;;;;;5111305;28;20059;-63
2023/03/22 01:31:22;;;;;;;17.42;4.70;;;9.40;99.90;;;;;;5111619;28;20062;-62
2023/03/22 01:33:48;;;;;;;12.68;3.28;;;9.30;99.90;;;;;;5111313;28;20475;-64
2023/03/22 01:36:14;;;;;;;12.95;3.40;;;9.10;99.90;;;;;;5111527;28;20082;-63
2023/03/22 01:38:40;;;;;;;14.90;3.88;;;9.50;99.90;;;;;;5111687;28;20110;-62
2023/03/22 01:41:06;;;;;;;17.67;3.60;;;9.10;99.90;;;;;;5110211;28;20518;-63
2023/03/22 01:43:31;;;;;;;14.93;3.63;;;9.30;99.90;;;;;;5111561;28;20056;-63
2023/03/22 01:45:57;;;;;;;15.40;3.05;;;9.20;99.90;;;;;;5111530;28;20139;-63
2023/03/22 01:48:32;;;;;;;17.05;3.03;;;9.50;99.90;;;;;;5111165;28;20071;-62
2023/03/22 01:50:58;;;;;;;14.20;3.45;;;9.40;99.90;;;;;;5112047;28;20047;-63
2023/03/22 01:53:24;;;;;;;7.75;2.75;;;9.20;99.90;;;;;;5114778;28;20055;-63
2023/03/22 01:55:50;;;;;;;;;;;7.00;99.90;;;;;;5115429;27;20048;-62
2023/03/22 01:58:17;;;;;;;15.25;3.10;;;9.30;99.90;;;;;;5114686;28;19928;-62
2023/03/22 02:00:44;;;;;;;17.35;3.53;;;9.00;99.90;;;;;;5114920;28;20364;-63
2023/03/22 02:03:11;;;;;;;13.35;3.00;;;8.80;99.90;;;;;;5114784;28;20055;-62
2023/03/22 02:05:39;;;;;;;11.77;3.28;;;9.10;99.90;;;;;;5114902;28;20055;-63
2023/03/22 02:08:05;;;;;;;11.30;2.60;;;9.00;99.90;;;;;;5114727;28;20448;-63
2023/03/22 02:10:31;;;;;;;18.95;3.58;;;8.80;99.90;;;;;;5114777;28;20096;-62
2023/03/22 02:13:17;;;;;;;9.88;2.60;;;8.90;99.90;;;;;;5114931;28;20043;-62
2023/03/22 02:16:44;;;;;;;9.88;2.65;;;9.30;99.90;;;;;;5114563;28;20063;-63
2023/03/22 02:19:30;;;;;;;10.02;2.50;;;9.30;99.90;;;;;;5071299;28;20646;-62
2023/03/22 02:22:20;;;;;;;11.90;2.88;;;8.70;99.90;;;;;;5071382;28;20051;-62
2023/03/22 02:25:04;;;;;;;15.77;2.97;;;9.00;99.90;;;;;;5104431;28;20061;-62
2023/03/22 02:27:57;;;;;;;8.00;2.20;;;8.90;99.90;;;;;;5114359;28;20090;-62
2023/03/22 02:30:46;;;;;;;10.98;2.67;;;8.90;99.90;;;;;;5114014;28;20101;-62
2023/03/22 02:33:46;;;;;;;7.90;2.20;;;8.70;99.90;;;;;;5114061;28;20523;-62
2023/03/22 02:36:33;;;;;;;11.00;2.45;;;9.10;99.90;;;;;;5114373;28;20053;-62
2023/03/22 02:39:18;;;;;;;9.98;2.38;;;9.20;99.90;;;;;;5113005;28;20046;-63
2023/03/22 02:42:02;;;;;;;9.60;2.40;;;8.90;99.90;;;;;;5114262;27;20107;-62
2023/03/22 02:45:10;;;;;;;9.90;2.60;;;9.10;99.90;;;;;;5114240;28;20048;-62
2023/03/22 02:47:53;;;;;;;18.92;2.83;;;9.10;99.90;;;;;;5073510;28;20483;-63
2023/03/22 02:50:19;;;;;;;11.88;2.22;;;9.00;99.90;;;;;;5114145;28;20098;-65
2023/03/22 02:52:48;;;;;;;12.93;3.13;;;9.40;99.90;;;;;;5114290;28;20082;-62
2023/03/22 02:55:28;;;;;;;11.13;2.30;;;9.30;99.90;;;;;;5113999;28;20321;-62
2023/03/22 02:58:00;;;;;;;15.55;2.65;;;9.00;99.90;;;;;;5113898;28;20052;-63
2023/03/22 03:00:27;;;;;;;14.43;2.63;;;9.40;99.90;;;;;;5113656;28;20380;-63
2023/03/22 03:02:58;;;;;;;10.02;2.28;;;9.20;99.90;;;;;;5113698;28;20431;-62
2023/03/22 03:05:26;;;;;;;11.95;2.40;;;9.50;99.90;;;;;;5113549;28;20678;-63
2023/03/22 03:07:57;;;;;;;14.13;2.72;;;9.30;99.90;;;;;;5113635;28;20118;-62
2023/03/22 03:10:23;;;;;;;13.13;2.63;;;8.20;99.90;;;;;;5113658;28;20055;-63
2023/03/22 03:12:49;;;;;;;14.43;2.60;;;9.30;99.90;;;;;;5113522;28;20039;-64
2023/03/22 03:15:18;;;;;;;9.52;2.40;;;9.50;99.90;;;;;;5112150;28;20130;-64
2023/03/22 03:18:16;;;;;;;15.30;2.80;;;9.20;99.90;;;;;;5113792;28;20403;-62
2023/03/22 03:21:15;;;;;;;14.82;2.90;;;9.40;99.90;;;;;;5084344;27;20578;-62
2023/03/22 03:23:53;;;;;;;15.02;2.85;;;9.20;99.90;;;;;;5113758;28;20054;-63
2023/03/22 03:26:26;;;;;;;16.17;2.45;;;9.10;99.90;;;;;;5112656;28;20109;-62
2023/03/22 03:29:13;;;;;;;11.90;2.50;;;9.30;99.90;;;;;;5113304;27;20448;-63
2023/03/22 03:31:53;;;;;;;12.10;2.80;;;9.40;99.90;;;;;;5113463;28;20402;-63
2023/03/22 03:34:35;;;;;;;13.02;3.05;;;9.40;99.90;;;;;;5113399;28;20083;-63
2023/03/22 03:37:15;;;;;;;11.93;2.90;;;9.60;99.90;;;;;;5113130;28;20491;-63
2023/03/22 03:39:47;;;;;;;17.60;3.15;;;9.10;99.90;;;;;;5113331;28;20051;-63
2023/03/22 03:42:15;;;;;;;12.35;2.20;;;9.20;99.90;;;;;;5113312;28;20055;-63
2023/03/22 03:44:41;;;;;;;11.43;2.35;;;9.50;99.90;;;;;;5112928;28;20044;-63
2023/03/22 03:47:07;;;;;;;;;;;9.60;99.90;;;;;;5113608;28;20058;-62
2023/03/22 03:49:34;;;;;;;15.68;2.63;;;9.40;99.90;;;;;;5113171;28;20399;-63
2023/03/22 03:52:00;;;;;;;14.77;2.92;;;9.40;99.90;;;;;;5113059;28;20055;-63
2023/03/22 03:54:25;;;;;;;12.32;2.20;;;9.40;99.90;;;;;;5112796;28;20568;-63
2023/03/22 03:56:52;;;;;;;12.88;3.10;;;9.30;99.90;;;;;;5113052;28;20040;-62
2023/03/22 03:59:19;;;;;;;12.27;2.78;;;9.50;99.90;;;;;;5112708;28;20044;-63
2023/03/22 04:01:49;;;;;;;13.70;2.88;;;9.50;99.90;;;;;;5112889;28;20080;-65
2023/03/22 04:04:24;;;;;;;18.85;3.45;;;9.40;99.90;;;;;;5112885;28;20490;-63
2023/03/22 04:06:55;;;;;;;15.25;3.13;;;9.60;99.90;;;;;;5113042;28;20059;-65
2023/03/22 04:09:26;;;;;;;15.80;3.17;;;9.50;99.90;;;;;;5112812;28;20047;-63
2023/03/22 04:11:53;;;;;;;13.95;2.78;;;9.20;99.90;;;;;;5112856;28;20395;-63
2023/03/22 04:14:19;;;;;;;12.32;2.47;;;9.40;99.90;;;;;;5111968;28;20506;-63
2023/03/22 04:16:44;;;;;;;12.55;2.65;;;9.20;99.90;;;;;;5112748;28;20071;-64
2023/03/22 04:19:10;;;;;;;11.43;2.70;;;9.70;99.90;;;;;;5112648;28;20047;-64
2023/03/22 04:21:36;;;;;;;9.88;2.65;;;9.30;99.90;;;;;;5112403;28;20089;-63
2023/03/22 04:24:02;;;;;;;13.15;2.42;;;9.30;99.90;;;;;;5112635;28;20150;-63
2023/03/22 04:26:28;;;;;;;;;;;9.40;99.90;;;;;;5112847;28;20050;-63
2023/03/22 04:28:54;;;;;;;10.60;2.67;;;9.20;99.90;;;;;;5112237;28;19920;-63
2023/03/22 04:31:19;;;;;;;14.90;3.20;;;9.20;99.90;;;;;;5112762;28;20601;-63
2023/03/22 04:33:46;;;;;;;15.75;3.38;;;9.80;99.90;;;;;;5112459;28;20055;-64
2023/03/22 04:36:16;;;;;;;15.30;3.35;;;9.50;99.90;;;;;;5112457;28;20048;-63
2023/03/22 04:38:42;;;;;;;15.50;2.95;;;9.30;99.90;;;;;;5112472;28;20042;-63
2023/03/22 04:41:09;;;;;;;11.35;2.95;;;9.40;99.90;;;;;;5112468;28;20090;-63
2023/03/22 04:43:38;;;;;;;12.73;3.38;;;9.20;99.90;;;;;;5112171;28;20126;-63
2023/03/22 04:46:11;;;;;;;11.68;3.53;;;9.20;99.90;;;;;;5112709;28;20050;-63
2023/03/22 04:48:38;;;;;;;10.07;2.90;;;9.50;99.90;;;;;;5112657;28;20043;-63
2023/03/22 04:51:09;;;;;;;13.65;3.22;;;9.30;99.90;;;;;;5112479;28;20126;-63
2023/03/22 04:53:38;;;;;;;15.73;3.28;;;9.70;99.90;;;;;;5112405;28;20051;-62
2023/03/22 04:56:06;;;;;;;15.05;3.78;;;9.30;99.90;;;;;;5112193;28;20051;-63
2023/03/22 04:58:34;;;;;;;19.10;3.80;;;9.30;99.90;;;;;;5111958;28;20079;-63
2023/03/22 05:01:01;;;;;;;13.73;4.03;;;8.90;99.90;;;;;;5112263;28;20051;-63
2023/03/22 05:03:27;;;;;;;15.60;4.20;;;9.10;99.90;;;;;;5112093;28;20054;-65
2023/03/22 05:05:58;;;;;;;14.13;5.57;;;9.30;99.90;;;;;;5112122;28;20387;-63
2023/03/22 05:08:25;;;;;;;12.77;4.20;;;9.20;99.90;;;;;;5112175;28;20455;-62
2023/03/22 05:10:53;;;;;;;18.55;4.35;;;9.30;99.90;;;;;;5111976;28;20087;-62
2023/03/22 05:13:20;;;;;;;15.02;4.63;;;9.40;99.90;;;;;;5112142;28;20048;-63
2023/03/22 05:15:48;;;;;;;16.40;4.70;;;9.20;99.90;;;;;;5112144;28;20122;-64
2023/03/22 05:18:14;;;;;;;15.05;4.72;;;9.70;99.90;;;;;;5112034;28;20160;-63
2023/03/22 05:20:41;;;;;;;15.02;5.00;;;9.60;99.90;;;;;;5112105;28;20169;-62
2023/03/22 05:23:08;;;;;;;12.68;5.25;;;9.40;99.90;;;;;;5112038;28;20129;-63
2023/03/22 05:25:35;;;;;;;14.35;5.35;;;9.40;99.90;;;;;;5111832;28;20047;-63
2023/03/22 05:28:01;;;;;;;14.75;6.00;;;9.40;99.90;;;;;;5115756;28;20040;-62
2023/03/22 05:30:27;;;;;;;;;;;9.30;99.90;;;;;;5116136;28;20067;-63
2023/03/22 05:32:58;;;;;;;19.48;6.65;;;9.50;99.90;;;;;;5114575;28;20634;-63
2023/03/22 05:35:25;;;;;;;17.73;5.88;;;9.40;99.90;;;;;;5115726;28;20051;-63
2023/03/22 05:37:51;;;;;;;16.90;6.35;;;9.50;99.90;;;;;;5115693;27;20414;-62
2023/03/22 05:40:17;;;;;;;17.05;6.20;;;9.30;99.90;;;;;;5115466;28;20070;-63
2023/03/22 05:42:44;;;;;;;16.98;6.60;;;9.30;99.90;;;;;;5115638;28;20047;-62
2023/03/22 05:45:10;;;;;;;17.30;7.55;;;9.50;99.90;;;;;;5115653;28;20047;-63
2023/03/22 05:47:38;;;;;;;18.35;7.40;;;9.30;99.90;;;;;;5115239;28;20503;-63
2023/03/22 05:50:08;;;;;;;20.58;8.38;;;9.50;99.90;;;;;;5115541;28;20093;-62
2023/03/22 05:52:35;;;;;;;19.08;8.13;;;9.50;99.90;;;;;;5115619;28;20093;-63
2023/03/22 05:55:01;;;;;;;19.58;8.65;;;9.60;99.90;;;;;;5115188;28;20449;-62
2023/03/22 05:57:28;;;;;;;19.60;8.77;;;9.60;99.90;;;;;;5115342;28;20051;-63
2023/03/22 05:59:55;;;;;;;20.15;8.75;;;9.60;99.90;;;;;;5115365;28;20043;-63
2023/03/22 06:02:21;;;;;;;20.77;8.73;;;9.60;99.90;;;;;;5115244;28;20104;-62
2023/03/22 06:04:48;;;;;;;17.50;8.45;;;9.60;99.90;;;;;;5115305;28;20044;-62
2023/03/22 06:07:14;;;;;;;22.05;8.93;;;9.50;99.90;;;;;;5115138;28;20048;-63
2023/03/22 06:09:40;;;;;;;;;;;9.60;99.90;;;;;;5115434;28;20454;-63
2023/03/22 06:12:06;;;;;;;21.70;8.82;;;9.50;99.90;;;;;;5115160;28;19974;-63
2023/03/22 06:14:32;;;;;;;20.17;8.52;;;9.50;99.90;;;;;;5115144;28;20051;-63
2023/03/22 06:16:57;;;;;;;19.00;8.70;;;9.50;99.90;;;;;;5115054;28;20123;-63
2023/03/22 06:19:24;;;;;;;17.52;9.18;;;9.70;99.90;;;;;;5114958;28;20097;-63
2023/03/22 06:21:52;;;;;;;24.55;9.88;;;9.50;99.90;;;;;;5113719;28;20052;-63
2023/03/22 06:24:18;;;;;;;22.38;10.90;;;9.60;99.90;;;;;;5114634;27;20062;-63
2023/03/22 06:26:44;;;;;;;22.33;10.48;;;9.70;99.90;;;;;;5114829;28;20043;-63
2023/03/22 06:29:10;;;;;;;24.27;10.75;;;9.80;99.90;;;;;;5114460;28;20113;-63
2023/03/22 06:31:36;;;;;;;24.95;10.75;;;9.80;99.90;;;;;;5114842;28;20093;-62
2023/03/22 06:34:03;;;;;;;29.77;11.27;;;9.70;99.90;;;;;;5113675;28;20060;-64
2023/03/22 06:36:29;;;;;;;23.77;11.40;;;9.60;99.90;;;;;;5114333;28;20130;-63
2023/03/22 06:38:56;;;;;;;27.85;11.20;;;9.80;99.90;;;;;;5114403;28;20043;-62
2023/03/22 06:41:22;;;;;;;22.15;11.85;;;9.70;99.90;;;;;;5114872;27;20039;-62
2023/03/22 06:43:48;;;;;;;22.88;10.93;;;9.70;99.90;;;;;;5114566;28;20485;-65
2023/03/22 06:46:13;;;;;;;24.65;12.20;;;10.00;99.90;;;;;;5114587;28;20046;-63
2023/03/22 06:48:39;;;;;;;25.30;11.65;;;9.40;99.90;;;;;;5114334;28;20086;-62
2023/03/22 06:51:05;;;;;;;24.70;11.90;;;9.90;99.90;;;;;;5114354;28;20040;-63
2023/03/22 06:53:31;;;;;;;26.83;12.65;;;9.90;99.90;;;;;;5114020;28;20046;-62
2023/03/22 06:55:56;;;;;;;23.95;11.75;;;9.70;99.90;;;;;;5112284;27;20044;-69
2023/03/22 06:58:22;;;;;;;28.63;13.00;;;10.10;99.90;;;;;;5107966;27;20221;-62
2023/03/22 07:00:48;;;;;;;25.67;12.05;;;9.60;99.90;;;;;;5113465;28;20077;-62
2023/03/22 07:03:13;;;;;;;26.92;11.80;;;10.10;99.90;;;;;;5113203;28;20048;-64
2023/03/22 07:05:39;;;;;;;26.55;12.70;;;10.20;99.90;;;;;;5112765;28;20441;-63
2023/03/22 07:08:05;;;;;;;30.27;13.35;;;9.90;99.90;;;;;;5111349;28;20084;-62
2023/03/22 07:10:31;;;;;;;28.83;12.88;;;9.70;99.90;;;;;;5113402;28;20073;-62
2023/03/22 07:12:57;;;;;;;26.58;14.45;;;10.30;99.90;;;;;;5112402;28;20062;-62
2023/03/22 07:15:23;;;;;;;;;;;9.80;99.90;;;;;;5113713;28;20055;-64
2023/03/22 07:17:52;;;;;;;24.17;12.65;;;9.90;99.90;;;;;;5113101;28;19926;-63
2023/03/22 07:20:19;;;;;;;27.85;13.35;;;10.30;99.90;;;;;;5112721;28;20063;-62
2023/03/22 07:22:45;;;;;;;27.27;13.25;;;10.00;99.90;;;;;;5112796;28;20043;-64
2023/03/22 07:25:10;;;;;;;;;;;10.10;99.90;;;;;;5113780;28;20047;-63
2023/03/22 07:27:36;;;;;;;22.20;11.45;;;10.10;99.90;;;;;;5112121;28;19942;-63
2023/03/22 07:30:04;;;;;;;24.23;12.35;;;10.40;99.90;;;;;;5112854;28;20066;-62
2023/03/22 07:32:30;;;;;;;24.83;12.25;;;10.10;99.90;;;;;;5112857;28;20496;-63
2023/03/22 07:34:56;;;;;;;25.10;12.77;;;10.30;99.90;;;;;;5111710;28;20135;-64
2023/03/22 07:37:21;;;;;;;23.90;12.95;;;10.00;99.90;;;;;;5111127;28;20043;-62
2023/03/22 07:39:47;;;;;;;22.63;12.57;;;10.50;99.90;;;;;;5112958;27;20104;-64
2023/03/22 07:42:13;;;;;;;23.80;12.02;;;10.40;99.90;;;;;;5111058;27;20083;-66
2023/03/22 07:44:38;;;;;;;28.58;13.07;;;10.40;99.90;;;;;;5111974;28;20043;-66
2023/03/22 07:47:04;;;;;;;29.45;12.80;;;10.20;99.90;;;;;;5113115;28;20048;-66
2023/03/22 07:49:31;;;;;;;20.45;12.23;;;10.40;99.90;;;;;;5112134;28;20039;-64
2023/03/22 07:51:56;;;;;;;27.38;13.60;;;10.30;99.90;;;;;;5111437;28;20044;-66
2023/03/22 07:54:22;;;;;;;21.48;11.20;;;10.30;99.90;;;;;;5113014;28;20039;-64
2023/03/22 07:56:48;;;;;;;23.90;11.60;;;10.40;99.90;;;;;;5111487;28;20052;-65
2023/03/22 07:59:16;;;;;;;23.65;12.05;;;10.60;99.90;;;;;;5109942;28;20123;-66
2023/03/22 08:01:43;;;;;;;22.98;11.73;;;10.50;99.90;;;;;;5113029;28;20058;-65
2023/03/22 08:04:09;;;;;;;24.65;11.60;;;10.50;99.90;;;;;;5112978;28;20111;-66
2023/03/22 08:06:35;;;;;;;25.13;12.13;;;10.70;99.90;;;;;;5112625;28;20101;-65
2023/03/22 08:09:04;;;;;;;22.92;12.20;;;10.60;99.90;;;;;;5112831;28;20369;-65
2023/03/22 08:11:30;;;;;;;19.48;10.80;;;10.60;99.90;;;;;;5113089;28;20082;-66
2023/03/22 08:13:55;;;;;;;25.13;10.55;;;10.80;99.90;;;;;;5111433;28;20087;-65
2023/03/22 08:16:21;;;;;;;22.20;10.93;;;10.80;99.90;;;;;;5112801;28;20040;-65
2023/03/22 08:18:48;;;;;;;21.98;10.57;;;10.80;99.90;;;;;;5112779;28;20126;-64
2023/03/22 08:21:13;;;;;;;17.30;10.15;;;10.70;99.90;;;;;;5112544;28;20054;-65
2023/03/22 08:23:39;;;;;;;23.60;10.13;;;10.60;99.90;;;;;;5112623;28;20499;-66
2023/03/22 08:26:05;;;;;;;22.88;10.73;;;10.50;99.90;;;;;;5112616;28;20059;-65
2023/03/22 08:28:31;;;;;;;22.17;9.40;;;11.00;99.90;;;;;;5107095;27;20059;-69
2023/03/22 08:30:56;;;;;;;17.77;9.25;;;10.80;99.90;;;;;;5111725;28;20189;-64
2023/03/22 08:33:22;;;;;;;22.90;9.45;;;10.80;99.90;;;;;;5110639;28;20081;-63
2023/03/22 08:35:49;;;;;;;21.20;9.13;;;10.70;99.90;;;;;;5111352;28;20043;-65
2023/03/22 08:38:15;;;;;;;19.83;9.25;;;11.10;99.90;;;;;;5108852;28;20580;-69
2023/03/22 08:40:41;;;;;;;18.77;8.98;;;11.10;99.90;;;;;;5108279;27;20085;-65
2023/03/22 08:43:07;;;;;;;21.15;9.10;;;11.20;99.90;;;;;;5109079;28;20132;-65
2023/03/22 08:45:33;;;;;;;16.92;9.40;;;11.10;99.90;;;;;;5109088;28;20476;-72
2023/03/22 08:47:58;;;;;;;20.45;9.40;;;11.50;99.90;;;;;;5108671;28;20044;-64
2023/03/22 08:50:25;;;;;;;20.85;9.45;;;11.30;99.90;;;;;;5110366;28;20162;-66
2023/03/22 08:52:52;;;;;;;23.75;10.05;;;11.30;99.90;;;;;;5106999;28;20094;-65
2023/03/22 08:55:18;;;;;;;20.63;8.45;;;11.60;99.90;;;;;;5108245;28;20051;-63
2023/03/22 08:57:49;;;;;;;;;;;11.10;99.90;;;;;;5112346;28;20086;-65
2023/03/22 09:00:16;;;;;;;25.70;9.35;;;11.10;99.90;;;;;;5113104;28;19923;-64
2023/03/22 09:02:42;;;;;;;25.05;9.10;;;11.10;99.90;;;;;;5114487;28;20050;-74
2023/03/22 09:05:09;;;;;;;24.27;9.13;;;11.20;99.90;;;;;;5114374;28;20047;-64
2023/03/22 09:07:35;;;;;;;14.82;8.50;;;10.70;99.90;;;;;;5114177;28;20470;-66
2023/03/22 09:10:00;;;;;;;21.83;8.93;;;11.10;99.90;;;;;;5114242;28;20087;-66
2023/03/22 09:12:26;;;;;;;17.48;8.27;;;10.90;99.90;;;;;;5114173;28;20083;-66
2023/03/22 09:14:52;;;;;;;14.57;8.13;;;11.00;99.90;;;;;;5114207;28;20468;-65
2023/03/22 09:17:18;;;;;;;15.82;8.55;;;10.90;99.90;;;;;;5113948;28;20699;-64
2023/03/22 09:19:46;;;;;;;19.48;7.78;;;11.10;99.90;;;;;;5115052;28;20054;-67
2023/03/22 09:22:13;;;;;;;20.00;7.80;;;10.90;99.90;;;;;;5116081;28;20098;-64
2023/03/22 09:24:38;;;;;;;16.30;8.13;;;10.80;99.90;;;;;;5115994;28;20048;-64
2023/03/22 09:27:04;;;;;;;17.52;8.38;;;10.80;99.90;;;;;;5115931;27;20051;-63
2023/03/22 09:29:30;;;;;;;15.57;8.05;;;10.80;99.90;;;;;;5115670;28;20063;-64
2023/03/22 09:31:56;;;;;;;;;;;10.40;99.90;;;;;;5112933;27;20050;-64
2023/03/22 09:34:22;;;;;;;18.77;8.25;;;10.40;99.90;;;;;;5111201;27;19923;-65
2023/03/22 09:36:48;;;;;;;19.15;7.57;;;10.60;99.90;;;;;;5112896;28;20044;-64
2023/03/22 09:39:15;;;;;;;19.30;8.02;;;10.50;99.90;;;;;;5115553;28;20472;-65
2023/03/22 09:41:48;;;;;;;17.60;7.18;;;10.60;99.90;;;;;;5113588;28;20119;-65
2023/03/22 09:44:27;;;;;;;18.48;7.65;;;10.70;99.90;;;;;;5115553;28;20079;-65
2023/03/22 09:46:56;;;;;;;17.00;7.45;;;10.60;99.90;;;;;;5114184;28;20051;-66
2023/03/22 09:49:31;;;;;;;19.33;7.65;;;10.90;99.90;;;;;;5113129;27;20048;-65
2023/03/22 09:51:58;;;;;;;16.63;7.03;;;10.60;99.90;;;;;;5114046;28;20050;-64
2023/03/22 09:54:35;;;;;;;14.20;7.32;;;10.40;99.90;;;;;;5115388;28;20051;-67
2023/03/22 09:57:15;;;;;;;14.95;6.25;;;10.40;99.90;;;;;;5114064;28;20044;-71
2023/03/22 09:59:57;;;;;;;22.55;6.90;;;10.70;99.90;;;;;;5093500;28;20095;-64
2023/03/22 10:02:37;;;;;;;15.65;6.63;;;10.50;99.90;;;;;;5094279;28;20500;-66
2023/03/22 10:05:36;;;;;;;13.02;6.28;;;10.60;99.90;;;;;;5094258;28;20051;-66
2023/03/22 10:08:40;;;;;;;18.20;6.28;;;10.80;99.90;;;;;;5093350;28;20041;-65
2023/03/22 10:11:19;;;;;;;12.43;6.38;;;10.40;99.90;;;;;;5094130;28;20047;-65
2023/03/22 10:14:16;;;;;;;17.48;6.35;;;10.60;99.90;;;;;;5093727;28;20126;-66
2023/03/22 10:16:43;;;;;;;13.77;6.03;;;10.50;99.90;;;;;;5091817;28;20109;-64
2023/03/22 10:19:34;;;;;;;16.45;6.00;;;10.30;99.90;;;;;;5094104;28;20270;-65
2023/03/22 10:22:02;;;;;;;15.55;6.35;;;10.40;99.90;;;;;;5094433;28;20063;-67
2023/03/22 10:24:37;;;;;;;14.38;6.18;;;10.50;99.90;;;;;;5094347;28;20437;-65
2023/03/22 10:27:03;;;;;;;12.13;6.00;;;10.20;99.90;;;;;;5093831;28;20044;-64
2023/03/22 10:29:39;;;;;;;16.25;5.80;;;10.50;99.90;;;;;;5093973;28;20073;-64
2023/03/22 10:32:30;;;;;;;9.93;6.53;;;10.20;99.90;;;;;;5093721;28;20069;-64
2023/03/22 10:34:56;;;;;;;12.52;5.90;;;9.90;99.90;;;;;;5074582;28;20067;-65
2023/03/22 10:37:33;;;;;;;14.48;6.18;;;10.30;99.90;;;;;;5092944;28;20078;-64
2023/03/22 10:40:06;;;;;;;19.90;6.28;;;10.30;99.90;;;;;;5094138;28;20044;-64
2023/03/22 10:42:35;;;;;;;17.88;6.20;;;10.20;99.90;;;;;;5093645;28;20058;-65
2023/03/22 10:45:30;;;;;;;10.38;5.43;;;10.10;99.90;;;;;;5093654;28;20112;-65
2023/03/22 10:48:08;;;;;;;14.23;5.95;;;10.20;99.90;;;;;;5091847;28;20110;-65
2023/03/22 10:50:41;;;;;;;14.40;5.68;;;10.00;99.90;;;;;;5093323;28;20052;-64
2023/03/22 10:53:36;;;;;;;13.43;5.50;;;9.80;99.90;;;;;;5092780;28;20052;-65
2023/03/22 10:56:04;;;;;;;15.02;5.30;;;10.30;99.90;;;;;;5093732;28;20048;-66
2023/03/22 10:58:32;;;;;;;17.70;5.53;;;10.40;99.90;;;;;;5093185;28;20040;-64
2023/03/22 11:01:04;;;;;;;10.68;4.95;;;10.00;99.90;;;;;;5093344;28;20055;-64
2023/03/22 11:03:40;;;;;;;15.02;5.30;;;10.50;99.90;;;;;;5093046;28;20479;-64
2023/03/22 11:06:19;;;;;;;12.03;5.67;;;10.30;99.90;;;;;;5115497;27;20043;-65
2023/03/22 11:08:50;;;;;;;14.45;5.47;;;10.40;99.90;;;;;;5133716;27;20044;-64
2023/03/22 11:11:29;;;;;;;16.23;5.30;;;10.10;99.90;;;;;;5139935;27;20109;-64
2023/03/22 11:13:59;;;;;;;14.35;5.50;;;10.30;99.90;;;;;;5111687;27;20420;-68
2023/03/22 11:16:26;;;;;;;12.45;5.50;;;10.70;99.90;;;;;;5109715;27;20126;-65
2023/03/22 11:18:54;;;;;;;11.80;5.10;;;10.60;99.90;;;;;;5113598;28;20051;-66
2023/03/22 11:21:27;;;;;;;15.48;5.82;;;10.50;99.90;;;;;;5113580;28;20051;-65
2023/03/22 11:24:00;;;;;;;15.23;5.55;;;10.80;99.90;;;;;;5112399;28;20100;-66
2023/03/22 11:26:35;;;;;;;12.30;5.65;;;10.60;99.90;;;;;;5112397;28;20051;-64
2023/03/22 11:29:10;;;;;;;9.77;5.38;;;10.50;99.90;;;;;;5111656;28;20467;-66
2023/03/22 11:31:57;;;;;;;12.82;5.40;;;10.50;99.90;;;;;;5113303;28;20112;-67
2023/03/22 11:34:28;;;;;;;10.73;5.32;;;10.60;99.90;;;;;;5113667;28;20079;-65
2023/03/22 11:36:57;;;;;;;11.95;5.40;;;10.80;99.90;;;;;;5113271;28;20052;-66
2023/03/22 11:39:27;;;;;;;7.60;5.00;;;10.30;99.90;;;;;;5113165;28;20252;-66
2023/03/22 11:41:58;;;;;;;12.43;5.13;;;10.70;99.90;;;;;;5113050;28;20050;-67
2023/03/22 11:44:26;;;;;;;14.30;5.72;;;10.80;99.90;;;;;;5112509;28;20051;-66
2023/03/22 11:46:59;;;;;;;12.85;5.95;;;10.80;99.90;;;;;;5113073;28;20074;-65
2023/03/22 11:49:36;;;;;;;10.35;5.70;;;10.80;99.90;;;;;;5111588;28;20044;-64
2023/03/22 11:52:23;;;;;;;13.52;5.90;;;10.80;99.90;;;;;;5113143;28;20071;-65
2023/03/22 11:54:50;;;;;;;13.77;5.28;;;10.60;99.90;;;;;;5111536;28;20477;-64
2023/03/22 11:57:20;;;;;;;11.48;5.47;;;10.50;99.90;;;;;;5112292;28;20047;-64
2023/03/22 12:00:07;;;;;;;13.25;5.97;;;10.90;99.90;;;;;;5109797;27;20124;-64
2023/03/22 12:02:51;;;;;;;11.75;5.10;;;10.90;99.90;;;;;;5111087;28;20078;-65
2023/03/22 12:05:27;;;;;;;12.93;5.70;;;10.60;99.90;;;;;;5107269;27;20043;-63
2023/03/22 12:08:37;;;;;;;9.05;5.18;;;10.40;99.90;;;;;;5109524;28;20384;-63
2023/03/22 12:11:06;;;;;;;11.02;6.20;;;10.60;99.90;;;;;;5100371;28;20407;-64
2023/03/22 12:13:56;;;;;;;12.07;5.05;;;10.70;99.90;;;;;;5102036;27;20062;-66
2023/03/22 12:16:28;;;;;;;14.10;6.65;;;10.70;99.90;;;;;;5112354;28;20248;-66
2023/03/22 12:19:20;;;;;;;12.93;6.45;;;10.70;99.90;;;;;;5121638;27;20648;-63
2023/03/22 12:21:48;;;;;;;11.23;5.60;;;10.60;99.90;;;;;;5132962;27;20049;-65
2023/03/22 12:24:32;;;;;;;11.80;6.30;;;10.80;99.90;;;;;;5132828;27;20101;-67
2023/03/22 12:27:06;;;;;;;17.02;8.25;;;10.40;99.90;;;;;;5131720;27;20047;-65
2023/03/22 12:29:35;;;;;;;11.10;6.40;;;10.70;99.90;;;;;;5132606;27;20457;-68
2023/03/22 12:32:08;;;;;;;15.07;7.15;;;10.50;99.90;;;;;;5131787;27;20379;-65
2023/03/22 12:34:48;;;;;;;16.20;7.05;;;10.50;99.90;;;;;;5132484;27;20108;-65
2023/03/22 12:37:19;;;;;;;12.63;7.30;;;10.60;99.90;;;;;;5132809;27;20087;-65
2023/03/22 12:40:14;;;;;;;17.88;7.10;;;10.70;99.90;;;;;;5132306;27;20486;-65
2023/03/22 12:42:53;;;;;;;10.68;6.53;;;10.80;99.90;;;;;;5123724;28;20495;-65
2023/03/22 12:45:26;;;;;;;14.18;7.10;;;10.30;99.90;;;;;;5132694;27;20062;-65
2023/03/22 12:48:19;;;;;;;14.75;7.22;;;10.50;99.90;;;;;;5132064;27;20490;-66
2023/03/22 12:51:11;;;;;;;17.50;7.15;;;10.50;99.90;;;;;;5132704;27;20039;-64
2023/03/22 12:53:58;;;;;;;16.20;7.20;;;10.60;99.90;;;;;;5132083;28;20055;-66
2023/03/22 12:56:26;;;;;;;16.05;6.93;;;10.50;99.90;;;;;;5132011;27;20051;-64
2023/03/22 12:59:00;;;;;;;16.70;6.85;;;10.30;99.90;;;;;;5132767;27;20096;-63
2023/03/22 13:01:44;;;;;;;11.60;6.55;;;10.40;99.90;;;;;;5132792;27;20055;-63